createdAt,value
2023-04-15T00:01:51.806Z,96182.72
2023-04-15T00:04:18.503Z,96188.03
2023-04-15T00:06:45.131Z,96181.75
2023-04-15T00:09:11.710Z,96180.53
2023-04-15T00:11:38.252Z,96187.69
2023-04-15T00:14:04.799Z,96180.88
2023-04-15T00:16:31.380Z,96189.53
2023-04-15T00:18:58.130Z,96189.31
2023-04-15T00:21:24.890Z,96190.72
2023-04-15T00:23:51.600Z,96188.88
2023-04-15T00:26:18.068Z,96187.94
2023-04-15T00:28:44.694Z,96189.66
2023-04-15T00:31:11.228Z,96186.81
2023-04-15T00:33:37.789Z,96191.38
2023-04-15T00:36:04.316Z,96192.66
2023-04-15T00:38:30.856Z,96183.25
2023-04-15T00:40:57.534Z,96190.19
2023-04-15T00:43:24.055Z,96189.97
2023-04-15T00:45:50.565Z,96190.41
2023-04-15T00:48:17.038Z,96190.19
2023-04-15T00:50:43.534Z,96196.06
2023-04-15T00:53:10.114Z,96193.53
2023-04-15T00:55:36.615Z,96184.22
2023-04-15T00:58:03.151Z,96181.88
2023-04-15T01:00:29.583Z,96182.19
2023-04-15T01:02:56.238Z,96176.22
2023-04-15T01:05:22.830Z,96176.09
2023-04-15T01:07:49.384Z,96180.34
2023-04-15T01:10:15.920Z,96169.50
2023-04-15T01:12:42.503Z,96183.16
2023-04-15T01:15:09.071Z,96174.16
2023-04-15T01:17:35.669Z,96176.41
2023-04-15T01:20:02.370Z,96181.31
2023-04-15T01:22:28.874Z,96184.00
2023-04-15T01:24:55.364Z,96185.88
2023-04-15T01:27:21.863Z,96185.56
2023-04-15T01:29:48.360Z,96177.63
2023-04-15T01:32:14.833Z,96175.53
2023-04-15T01:34:41.316Z,96178.16
2023-04-15T01:37:10.562Z,96180.66
2023-04-15T01:39:37.096Z,96177.94
2023-04-15T01:42:03.595Z,96169.38
2023-04-15T01:44:30.078Z,96167.56
2023-04-15T01:46:56.873Z,96172.22
2023-04-15T01:49:23.496Z,96167.00
2023-04-15T01:51:50.033Z,96169.63
2023-04-15T01:54:16.500Z,96171.69
2023-04-15T01:56:43.078Z,96167.13
2023-04-15T01:59:09.584Z,96172.31
2023-04-15T02:01:36.174Z,96171.34
2023-04-15T02:04:02.864Z,96166.03
2023-04-15T02:06:29.379Z,96171.78
2023-04-15T02:08:55.973Z,96160.94
2023-04-15T02:11:22.482Z,96166.69
2023-04-15T02:13:48.994Z,96163.53
2023-04-15T02:16:15.579Z,96156.94
2023-04-15T02:18:42.104Z,96164.63
2023-04-15T02:21:08.589Z,96172.44
2023-04-15T02:23:35.065Z,96157.91
2023-04-15T02:26:01.537Z,96159.97
2023-04-15T02:28:28.021Z,96161.38
2023-04-15T02:30:54.545Z,96157.47
2023-04-15T02:33:21.057Z,96157.91
2023-04-15T02:35:47.622Z,96153.34
2023-04-15T02:38:14.103Z,96156.63
2023-04-15T02:40:40.639Z,96154.09
2023-04-15T02:43:07.088Z,96157.38
2023-04-15T02:45:33.564Z,96155.09
2023-04-15T02:48:00.043Z,96159.09
2023-04-15T02:50:26.568Z,96162.03
2023-04-15T02:52:53.139Z,96160.28
2023-04-15T02:55:19.716Z,96154.97
2023-04-15T02:57:46.325Z,96155.31
2023-04-15T03:00:12.803Z,96150.75
2023-04-15T03:02:39.494Z,96156.28
2023-04-15T03:05:06.123Z,96154.84
2023-04-15T03:07:32.662Z,96153.78
2023-04-15T03:09:59.181Z,96160.63
2023-04-15T03:12:25.713Z,96150.97
2023-04-15T03:14:52.377Z,96151.50
2023-04-15T03:17:18.930Z,96155.75
2023-04-15T03:19:45.465Z,96155.41
2023-04-15T03:22:11.926Z,96157.47
2023-04-15T03:24:41.488Z,96146.22
2023-04-15T03:27:07.952Z,96147.31
2023-04-15T03:29:34.476Z,96148.59
2023-04-15T03:32:01.018Z,96150.44
2023-04-15T03:34:27.486Z,96149.69
2023-04-15T03:36:54.027Z,96142.09
2023-04-15T03:39:20.533Z,96145.44
2023-04-15T03:41:47.066Z,96141.34
2023-04-15T03:44:13.658Z,96143.50
2023-04-15T03:46:40.264Z,96149.44
2023-04-15T03:49:06.891Z,96147.72
2023-04-15T03:51:33.355Z,96152.47
2023-04-15T03:53:59.837Z,96146.63
2023-04-15T03:56:26.285Z,96154.09
2023-04-15T03:58:52.766Z,96145.22
2023-04-15T04:01:19.258Z,96150.88
2023-04-15T04:03:45.875Z,96154.13
2023-04-15T04:06:12.489Z,96150.88
2023-04-15T04:08:38.951Z,96149.78
2023-04-15T04:11:05.361Z,96148.50
2023-04-15T04:13:31.801Z,96145.56
2023-04-15T04:15:58.360Z,96144.25
2023-04-15T04:18:24.866Z,96146.09
2023-04-15T04:20:51.265Z,96145.78
2023-04-15T04:23:17.658Z,96147.19
2023-04-15T04:25:44.155Z,96156.06
2023-04-15T04:28:10.630Z,96150.97
2023-04-15T04:30:37.148Z,96146.09
2023-04-15T04:33:03.605Z,96148.28
2023-04-15T04:35:30.037Z,96153.13
2023-04-15T04:37:59.690Z,96148.28
2023-04-15T04:40:26.144Z,96146.50
2023-04-15T04:42:52.575Z,96145.44
2023-04-15T04:45:19.135Z,96138.06
2023-04-15T04:47:45.558Z,96138.19
2023-04-15T04:50:12.047Z,96128.94
2023-04-15T04:52:41.556Z,96136.13
2023-04-15T04:55:08.048Z,96127.34
2023-04-15T04:57:37.489Z,96133.50
2023-04-15T05:00:04.037Z,96130.63
2023-04-15T05:02:30.702Z,96121.59
2023-04-15T05:04:57.270Z,96123.69
2023-04-15T05:07:23.806Z,96130.06
2023-04-15T05:09:50.224Z,96130.06
2023-04-15T05:12:16.729Z,96142.97
2023-04-15T05:14:43.155Z,96133.53
2023-04-15T05:17:09.603Z,96132.88
2023-04-15T05:19:36.088Z,96131.06
2023-04-15T05:22:02.598Z,96139.50
2023-04-15T05:24:29.000Z,96125.63
2023-04-15T05:26:55.409Z,96129.06
2023-04-15T05:29:21.826Z,96117.81
2023-04-15T05:31:48.302Z,96116.53
2023-04-15T05:34:14.757Z,96120.97
2023-04-15T05:36:41.164Z,96118.91
2023-04-15T05:39:07.573Z,96120.44
2023-04-15T05:41:37.228Z,96125.06
2023-04-15T05:44:03.727Z,96132.78
2023-04-15T05:46:30.252Z,96128.00
2023-04-15T05:48:56.903Z,96127.25
2023-04-15T05:51:23.378Z,96128.78
2023-04-15T05:53:49.847Z,96128.00
2023-04-15T05:56:16.263Z,96136.56
2023-04-15T05:58:42.735Z,96138.19
2023-04-15T06:01:09.221Z,96134.50
2023-04-15T06:03:35.796Z,96141.44
2023-04-15T06:06:02.399Z,96144.88
2023-04-15T06:08:28.819Z,96139.47
2023-04-15T06:10:55.305Z,96143.59
2023-04-15T06:13:21.744Z,96145.56
2023-04-15T06:15:48.169Z,96151.50
2023-04-15T06:18:14.723Z,96152.66
2023-04-15T06:20:41.199Z,96151.16
2023-04-15T06:23:07.681Z,96159.94
2023-04-15T06:25:34.204Z,96152.13
2023-04-15T06:28:00.711Z,96155.28
2023-04-15T06:30:27.235Z,96155.59
2023-04-15T06:32:53.665Z,96149.41
2023-04-15T06:35:20.202Z,96153.00
2023-04-15T06:37:46.601Z,96161.53
2023-04-15T06:40:13.139Z,96161.53
2023-04-15T06:42:39.714Z,96167.06
2023-04-15T06:45:06.136Z,96167.41
2023-04-15T06:47:32.694Z,96168.28
2023-04-15T06:49:59.233Z,96168.28
2023-04-15T06:52:25.820Z,96175.97
2023-04-15T06:54:52.409Z,96176.00
2023-04-15T06:57:18.941Z,96175.88
2023-04-15T06:59:45.439Z,96173.59
2023-04-15T07:02:12.043Z,96175.19
2023-04-15T07:04:38.587Z,96169.34
2023-04-15T07:07:05.141Z,96170.13
2023-04-15T07:09:31.623Z,96156.91
2023-04-15T07:11:58.212Z,96166.09
2023-04-15T07:14:24.777Z,96156.69
2023-04-15T07:16:51.377Z,96169.13
2023-04-15T07:19:17.961Z,96161.13
2023-04-15T07:21:44.587Z,96157.47
2023-04-15T07:24:11.191Z,96163.53
2023-04-15T07:26:37.652Z,96170.00
2023-04-15T07:29:04.285Z,96170.53
2023-04-15T07:31:30.856Z,96159.72
2023-04-15T07:33:57.428Z,96165.88
2023-04-15T07:36:23.914Z,96162.75
2023-04-15T07:38:50.454Z,96162.34
2023-04-15T07:41:17.051Z,96164.81
2023-04-15T07:43:43.604Z,96167.59
2023-04-15T07:46:10.125Z,96175.44
2023-04-15T07:48:37.585Z,96169.59
2023-04-15T07:51:04.225Z,96177.38
2023-04-15T07:53:30.694Z,96177.47
2023-04-15T07:55:57.268Z,96180.84
2023-04-15T07:58:23.738Z,96175.91
2023-04-15T08:00:50.223Z,96176.34
2023-04-15T08:03:16.749Z,96178.34
2023-04-15T08:05:43.341Z,96177.06
2023-04-15T08:08:09.850Z,96174.25
2023-04-15T08:10:36.285Z,96168.63
2023-04-15T08:13:02.771Z,96170.03
2023-04-15T08:15:29.362Z,96175.78
2023-04-15T08:17:55.865Z,96173.06
2023-04-15T08:20:22.370Z,96182.06
2023-04-15T08:22:48.914Z,96188.66
2023-04-15T08:25:15.354Z,96191.38
2023-04-15T08:27:41.770Z,96190.63
2023-04-15T08:30:08.212Z,96190.06
2023-04-15T08:32:35.048Z,96195.91
2023-04-15T08:35:01.650Z,96192.34
2023-04-15T08:37:28.110Z,96194.31
2023-04-15T08:39:54.619Z,96202.66
2023-04-15T08:42:21.054Z,96197.56
2023-04-15T08:44:47.601Z,96195.94
2023-04-15T08:47:14.119Z,96207.53
2023-04-15T08:49:40.656Z,96201.25
2023-04-15T08:52:07.096Z,96211.53
2023-04-15T08:54:33.580Z,96217.16
2023-04-15T08:57:00.015Z,96218.44
2023-04-15T08:59:26.516Z,96225.09
2023-04-15T09:01:53.042Z,96229.63
2023-04-15T09:04:19.665Z,96233.28
2023-04-15T09:06:46.414Z,96229.28
2023-04-15T09:09:12.943Z,96232.44
2023-04-15T09:11:39.370Z,96230.47
2023-04-15T09:14:05.872Z,96241.22
2023-04-15T09:16:32.385Z,96243.28
2023-04-15T09:18:58.953Z,96241.88
2023-04-15T09:21:25.435Z,96240.03
2023-04-15T09:23:51.905Z,96243.38
2023-04-15T09:26:18.331Z,96254.13
2023-04-15T09:28:44.808Z,96255.31
2023-04-15T09:31:11.393Z,96257.13
2023-04-15T09:33:37.920Z,96266.66
2023-04-15T09:36:04.435Z,96261.47
2023-04-15T09:38:30.942Z,96266.31
2023-04-15T09:40:57.450Z,96271.66
2023-04-15T09:43:24.045Z,96271.97
2023-04-15T09:45:50.596Z,96275.31
2023-04-15T09:48:17.061Z,96284.09
2023-04-15T09:50:43.612Z,96286.94
2023-04-15T09:53:10.113Z,96292.88
2023-04-15T09:55:36.620Z,96290.50
2023-04-15T09:58:03.138Z,96301.13
2023-04-15T10:00:29.580Z,96296.47
2023-04-15T10:02:56.367Z,96303.00
2023-04-15T10:05:22.978Z,96306.47
2023-04-15T10:07:49.747Z,96309.84
2023-04-15T10:10:16.375Z,96313.19
2023-04-15T10:12:42.973Z,96316.19
2023-04-15T10:15:09.406Z,96319.78
2023-04-15T10:17:35.942Z,96314.06
2023-04-15T10:20:02.447Z,96321.84
2023-04-15T10:22:28.905Z,96317.19
2023-04-15T10:24:55.475Z,96324.91
2023-04-15T10:27:21.927Z,96332.03
2023-04-15T10:29:48.395Z,96332.25
2023-04-15T10:32:14.830Z,96340.81
2023-04-15T10:34:41.338Z,96332.38
2023-04-15T10:37:07.843Z,96335.97
2023-04-15T10:39:34.516Z,96334.31
2023-04-15T10:42:01.169Z,96337.69
2023-04-15T10:44:27.646Z,96334.56
2023-04-15T10:46:54.284Z,96339.88
2023-04-15T10:49:20.939Z,96338.69
2023-04-15T10:51:47.517Z,96338.75
2023-04-15T10:54:13.985Z,96351.22
2023-04-15T10:56:40.550Z,96358.34
2023-04-15T10:59:07.036Z,96356.81
2023-04-15T11:01:33.532Z,96356.16
2023-04-15T11:04:00.148Z,96358.56
2023-04-15T11:06:26.693Z,96368.09
2023-04-15T11:08:53.234Z,96373.31
2023-04-15T11:11:19.662Z,96368.78
2023-04-15T11:13:46.186Z,96377.06
2023-04-15T11:16:12.717Z,96375.19
2023-04-15T11:18:39.341Z,96378.19
2023-04-15T11:21:05.881Z,96381.50
2023-04-15T11:23:32.316Z,96380.94
2023-04-15T11:25:58.807Z,96386.22
2023-04-15T11:28:25.376Z,96382.47
2023-04-15T11:30:52.081Z,96389.41
2023-04-15T11:33:20.123Z,96393.41
2023-04-15T11:35:47.189Z,96388.28
2023-04-15T11:38:14.189Z,96395.91
2023-04-15T11:40:41.053Z,96395.22
2023-04-15T11:43:08.060Z,96400.66
2023-04-15T11:45:34.756Z,96399.38
2023-04-15T11:48:01.344Z,96403.47
2023-04-15T11:50:27.863Z,96407.22
2023-04-15T11:52:54.775Z,96411.31
2023-04-15T11:55:21.672Z,96420.13
2023-04-15T11:57:48.252Z,96420.66
2023-04-15T12:00:14.822Z,96423.59
2023-04-15T12:02:41.608Z,96427.38
2023-04-15T12:05:08.568Z,96431.47
2023-04-15T12:07:35.208Z,96429.72
2023-04-15T12:10:02.370Z,96440.66
2023-04-15T12:12:29.528Z,96441.00
2023-04-15T12:14:56.270Z,96445.25
2023-04-15T12:17:22.996Z,96447.19
2023-04-15T12:19:49.665Z,96449.47
2023-04-15T12:22:16.351Z,96450.22
2023-04-15T12:24:43.074Z,96449.25
2023-04-15T12:27:09.864Z,96459.41
2023-04-15T12:29:37.107Z,96458.34
2023-04-15T12:32:03.778Z,96464.63
2023-04-15T12:34:30.302Z,96470.22
2023-04-15T12:36:57.329Z,96472.25
2023-04-15T12:39:24.239Z,96467.88
2023-04-15T12:41:51.157Z,96477.19
2023-04-15T12:44:17.726Z,96478.03
2023-04-15T12:46:44.448Z,96486.84
2023-04-15T12:49:11.130Z,96483.03
2023-04-15T12:51:37.759Z,96492.59
2023-04-15T12:54:04.627Z,96492.59
2023-04-15T12:56:32.170Z,96491.97
2023-04-15T12:58:59.008Z,96496.56
2023-04-15T13:01:26.186Z,96500.72
2023-04-15T13:03:53.065Z,96498.16
2023-04-15T13:06:19.580Z,96503.84
2023-04-15T13:08:57.477Z,96506.06
2023-04-15T13:11:25.132Z,96514.97
2023-04-15T13:13:51.669Z,96508.84
2023-04-15T13:16:18.635Z,96514.03
2023-04-15T13:18:45.387Z,96519.75
2023-04-15T13:21:12.306Z,96513.69
2023-04-15T13:23:38.818Z,96527.66
2023-04-15T13:26:05.314Z,96536.28
2023-04-15T13:28:31.767Z,96539.19
2023-04-15T13:30:58.302Z,96527.47
2023-04-15T13:33:24.913Z,96535.25
2023-04-15T13:35:51.389Z,96544.59
2023-04-15T13:38:17.908Z,96545.44
2023-04-15T13:40:44.661Z,96547.06
2023-04-15T13:43:11.322Z,96551.19
2023-04-15T13:45:37.929Z,96553.25
2023-04-15T13:48:04.593Z,96555.59
2023-04-15T13:50:31.099Z,96551.69
2023-04-15T13:52:57.810Z,96560.16
2023-04-15T13:55:26.639Z,96546.88
2023-04-15T13:57:53.783Z,96565.31
2023-04-15T14:00:20.421Z,96562.84
2023-04-15T14:02:47.116Z,96559.31
2023-04-15T14:05:13.852Z,96572.16
2023-04-15T14:07:40.769Z,96572.25
2023-04-15T14:10:07.439Z,96577.78
2023-04-15T14:12:34.796Z,96583.88
2023-04-15T14:15:02.215Z,96583.09
2023-04-15T14:17:28.979Z,96584.72
2023-04-15T14:19:55.657Z,96588.00
2023-04-15T14:22:22.275Z,96587.75
2023-04-15T14:24:49.022Z,96588.09
2023-04-15T14:27:15.576Z,96595.22
2023-04-15T14:29:42.408Z,96589.44
2023-04-15T14:32:12.057Z,96593.84
2023-04-15T14:34:39.160Z,96594.88
2023-04-15T14:37:05.600Z,96601.06
2023-04-15T14:39:32.117Z,96603.69
2023-04-15T14:41:58.613Z,96610.19
2023-04-15T14:44:25.065Z,96611.88
2023-04-15T14:46:51.640Z,96609.28
2023-04-15T14:49:18.143Z,96614.34
2023-04-15T14:51:44.683Z,96624.00
2023-04-15T14:54:11.142Z,96625.69
2023-04-15T14:56:37.780Z,96627.38
2023-04-15T14:59:04.398Z,96625.69
2023-04-15T15:01:31.148Z,96632.66
2023-04-15T15:03:57.789Z,96635.69
2023-04-15T15:06:24.322Z,96643.13
2023-04-15T15:08:50.806Z,96646.94
2023-04-15T15:11:17.262Z,96648.22
2023-04-15T15:13:43.744Z,96650.75
2023-04-15T15:16:12.484Z,96656.78
2023-04-15T15:18:40.388Z,96656.69
2023-04-15T15:21:06.861Z,96660.59
2023-04-15T15:23:33.436Z,96657.53
2023-04-15T15:25:59.957Z,96667.78
2023-04-15T15:28:26.542Z,96666.44
2023-04-15T15:30:53.050Z,96670.59
2023-04-15T15:33:19.596Z,96678.38
2023-04-15T15:35:46.431Z,96681.25
2023-04-15T15:38:13.090Z,96686.00
2023-04-15T15:40:41.139Z,96690.19
2023-04-15T15:43:07.723Z,96695.13
2023-04-15T15:45:34.253Z,96689.13
2023-04-15T15:48:00.765Z,96693.25
2023-04-15T15:50:27.631Z,96698.69
2023-04-15T15:52:54.137Z,96695.97
2023-04-15T15:55:20.748Z,96710.38
2023-04-15T15:57:47.210Z,96707.91
2023-04-15T16:00:13.761Z,96710.28
2023-04-15T16:05:09.688Z,96724.94
2023-04-15T16:07:36.221Z,96720.94
2023-04-15T16:10:02.725Z,96725.97
2023-04-15T16:12:29.387Z,96726.53
2023-04-15T16:14:55.933Z,96733.91
2023-04-15T16:17:22.494Z,96731.06
2023-04-15T16:19:59.307Z,96738.91
2023-04-15T16:22:27.372Z,96738.66
2023-04-15T16:24:54.069Z,96745.78
2023-04-15T16:27:20.633Z,96745.16
2023-04-15T16:29:47.200Z,96749.81
2023-04-15T16:32:14.003Z,96754.91
2023-04-15T16:34:40.648Z,96760.72
2023-04-15T16:37:07.142Z,96764.47
2023-04-15T16:39:33.733Z,96774.19
2023-04-15T16:42:00.332Z,96779.97
2023-04-15T16:44:26.852Z,96778.03
2023-04-15T16:46:53.492Z,96788.88
2023-04-15T16:49:20.068Z,96793.88
2023-04-15T16:51:46.546Z,96797.28
2023-04-15T16:54:15.358Z,96801.97
2023-04-15T16:56:41.892Z,96805.59
2023-04-15T16:59:08.499Z,96804.91
2023-04-15T17:01:35.224Z,96815.03
2023-04-15T17:04:02.037Z,96820.22
2023-04-15T17:06:28.668Z,96830.13
2023-04-15T17:08:55.162Z,96825.03
2023-04-15T17:11:21.638Z,96825.03
2023-04-15T17:13:48.180Z,96825.38
2023-04-15T17:16:15.017Z,96828.00
2023-04-15T17:18:41.518Z,96828.94
2023-04-15T17:21:08.191Z,96844.59
2023-04-15T17:23:34.923Z,96837.75
2023-04-15T17:26:01.509Z,96844.88
2023-04-15T17:28:28.017Z,96841.16
2023-04-15T17:30:54.525Z,96841.16
2023-04-15T17:33:55.358Z,96833.38
2023-04-15T17:36:07.757Z,96846.16
2023-04-15T17:38:34.899Z,96853.94
2023-04-15T17:41:01.646Z,96867.69
2023-04-15T17:43:28.120Z,96875.78
2023-04-15T17:45:54.598Z,96888.91
2023-04-15T17:48:21.108Z,96901.28
2023-04-15T17:50:49.245Z,96901.72
2023-04-15T17:53:17.132Z,96907.19
2023-04-15T17:55:43.712Z,96904.16
2023-04-15T17:58:10.331Z,96907.19
2023-04-15T18:00:36.867Z,96910.75
2023-04-15T18:03:03.627Z,96911.53
2023-04-15T18:05:31.799Z,96918.88
2023-04-15T18:07:58.925Z,96922.56
2023-04-15T18:10:25.411Z,96930.13
2023-04-15T18:12:52.157Z,96922.69
2023-04-15T18:15:18.872Z,96932.50
2023-04-15T18:17:45.498Z,96939.72
2023-04-15T18:20:14.169Z,96942.31
2023-04-15T18:22:40.714Z,96951.00
2023-04-15T18:25:07.902Z,96950.44
2023-04-15T18:27:34.456Z,96960.69
2023-04-15T18:30:01.363Z,96964.59
2023-04-15T18:32:29.302Z,96973.94
2023-04-15T18:34:57.689Z,96965.25
2023-04-15T18:37:24.690Z,96970.97
2023-04-15T18:39:51.093Z,96978.81
2023-04-15T18:42:17.718Z,96976.69
2023-04-15T18:44:44.441Z,96975.03
2023-04-15T18:47:11.027Z,96979.41
2023-04-15T18:49:37.528Z,96993.56
2023-04-15T18:52:04.222Z,97004.56
2023-04-15T18:54:30.822Z,97012.81
2023-04-15T18:56:57.263Z,97015.53
2023-04-15T18:59:28.912Z,97019.59
2023-04-15T19:01:56.973Z,97029.50
2023-04-15T19:04:23.700Z,97028.19
2023-04-15T19:06:50.206Z,97038.72
2023-04-15T19:09:16.655Z,97039.50
2023-04-15T19:11:43.180Z,97043.34
2023-04-15T19:14:09.665Z,97049.56
2023-04-15T19:16:36.205Z,97044.56
2023-04-15T19:19:02.985Z,97050.22
2023-04-15T19:21:29.654Z,97054.00
2023-04-15T19:23:56.355Z,97051.94
2023-04-15T19:26:22.995Z,97050.84
2023-04-15T19:28:49.771Z,97056.59
2023-04-15T19:31:16.420Z,97056.00
2023-04-15T19:33:44.127Z,97058.47
2023-04-15T19:36:10.762Z,97073.22
2023-04-15T19:38:37.302Z,97077.19
2023-04-15T19:41:03.981Z,97080.03
2023-04-15T19:43:40.524Z,97078.88
2023-04-15T19:46:08.110Z,97087.00
2023-04-15T19:48:34.697Z,97083.91
2023-04-15T19:51:01.243Z,97080.03
2023-04-15T19:53:27.800Z,97088.25
2023-04-15T19:55:54.291Z,97090.19
2023-04-15T19:58:20.793Z,97102.19
2023-04-15T20:00:47.267Z,97100.63
2023-04-15T20:03:13.927Z,97098.69
2023-04-15T20:05:40.513Z,97103.47
2023-04-15T20:08:06.987Z,97107.81
2023-04-15T20:10:33.468Z,97108.59
2023-04-15T20:12:59.965Z,97112.47
2023-04-15T20:15:26.514Z,97106.63
2023-04-15T20:17:53.072Z,97107.75
2023-04-15T20:20:19.596Z,97107.09
2023-04-15T20:22:46.087Z,97104.50
2023-04-15T20:25:12.541Z,97111.16
2023-04-15T20:27:39.070Z,97101.16
2023-04-15T20:30:05.668Z,97104.00
2023-04-15T20:32:32.200Z,97101.50
2023-04-15T20:34:58.724Z,97102.19
2023-04-15T20:37:25.263Z,97107.94
2023-04-15T20:39:51.813Z,97106.16
2023-04-15T20:42:18.226Z,97105.56
2023-04-15T20:44:44.921Z,97109.47
2023-04-15T20:47:11.501Z,97105.03
2023-04-15T20:49:38.023Z,97114.56
2023-04-15T20:52:04.477Z,97116.56
2023-04-15T20:54:31.020Z,97116.91
2023-04-15T20:56:57.492Z,97119.84
2023-04-15T20:59:24.009Z,97127.63
2023-04-15T21:01:50.616Z,97124.50
2023-04-15T21:04:17.101Z,97132.22
2023-04-15T21:06:43.635Z,97129.50
2023-04-15T21:09:10.073Z,97139.72
2023-04-15T21:14:06.000Z,97138.50
2023-04-15T21:16:32.572Z,97138.41
2023-04-15T21:18:59.100Z,97147.00
2023-04-15T21:21:25.670Z,97149.34
2023-04-15T21:23:52.158Z,97149.78
2023-04-15T21:26:18.664Z,97160.25
2023-04-15T21:28:45.246Z,97158.69
2023-04-15T21:31:11.784Z,97161.06
2023-04-15T21:33:38.263Z,97163.19
2023-04-15T21:36:04.799Z,97157.06
2023-04-15T21:38:31.376Z,97153.13
2023-04-15T21:40:57.835Z,97158.56
2023-04-15T21:43:24.400Z,97157.06
2023-04-15T21:46:21.033Z,97153.06
2023-04-15T21:48:37.561Z,97157.06
2023-04-15T21:51:04.161Z,97160.63
2023-04-15T21:53:30.707Z,97163.63
2023-04-15T21:55:57.253Z,97168.75
2023-04-15T21:58:23.822Z,97162.13
2023-04-15T22:00:50.510Z,97161.66
2023-04-15T22:03:17.309Z,97164.38
2023-04-15T22:05:44.136Z,97164.38
2023-04-15T22:08:10.712Z,97178.75
2023-04-15T22:10:37.198Z,97184.53
2023-04-15T22:13:03.750Z,97177.91
2023-04-15T22:15:30.240Z,97180.63
2023-04-15T22:17:56.822Z,97186.03
2023-04-15T22:20:23.319Z,97174.28
2023-04-15T22:22:49.887Z,97180.69
2023-04-15T22:25:20.945Z,97177.22
2023-04-15T22:27:47.559Z,97178.75
2023-04-15T22:30:14.045Z,97178.75
2023-04-15T22:32:40.606Z,97182.13
2023-04-15T22:35:07.149Z,97192.66
2023-04-15T22:37:33.660Z,97194.25
2023-04-15T22:40:00.277Z,97198.81
2023-04-15T22:42:26.844Z,97199.66
2023-04-15T22:44:53.447Z,97204.28
2023-04-15T22:47:19.978Z,97200.22
2023-04-15T22:49:49.330Z,97201.91
2023-04-15T22:52:29.417Z,97207.38
2023-04-15T22:54:57.397Z,97207.00
2023-04-15T22:57:23.960Z,97206.16
2023-04-15T22:59:50.572Z,97205.75
2023-04-15T23:02:17.305Z,97215.97
2023-04-15T23:04:44.124Z,97210.50
2023-04-15T23:07:10.760Z,97214.50
2023-04-15T23:09:37.273Z,97222.09
2023-04-15T23:12:03.752Z,97215.06
2023-04-15T23:14:30.319Z,97219.75
2023-04-15T23:16:56.851Z,97206.69
2023-04-15T23:19:23.340Z,97210.16
2023-04-15T23:21:49.977Z,97217.47
2023-04-15T23:24:16.507Z,97220.16
2023-04-15T23:26:43.121Z,97225.63
2023-04-15T23:29:09.918Z,97226.81
2023-04-15T23:31:36.753Z,97232.16
2023-04-15T23:34:03.349Z,97231.78
2023-04-15T23:36:29.830Z,97234.47
2023-04-15T23:38:56.288Z,97239.53
2023-04-15T23:41:22.831Z,97241.84
2023-04-15T23:43:49.487Z,97239.19
2023-04-15T23:46:16.110Z,97250.63
2023-04-15T23:48:42.683Z,97250.69
2023-04-15T23:51:09.213Z,97250.75
2023-04-15T23:53:35.806Z,97250.03
2023-04-15T23:56:02.500Z,97251.59
2023-04-15T23:58:29.143Z,97248.38
